createdAt,value
2022-08-17T00:00:49.437Z,24.53
2022-08-17T00:03:28.588Z,24.60
2022-08-17T00:06:08.617Z,23.97
2022-08-17T00:08:49.234Z,24.23
2022-08-17T00:11:22.824Z,23.37
2022-08-17T00:14:00.935Z,33.07
2022-08-17T00:16:56.677Z,26.03
2022-08-17T00:19:29.942Z,25.97
2022-08-17T00:22:34.522Z,24.93
2022-08-17T00:24:54.962Z,31.10
2022-08-17T00:27:26.926Z,26.13
2022-08-17T00:29:59.003Z,27.00
2022-08-17T00:33:11.926Z,27.03
2022-08-17T00:35:39.247Z,26.20
2022-08-17T00:38:12.199Z,33.03
2022-08-17T00:40:50.517Z,28.03
2022-08-17T00:43:28.821Z,28.13
2022-08-17T00:46:06.614Z,27.17
2022-08-17T00:48:39.096Z,29.20
2022-08-17T00:51:20.150Z,28.50
2022-08-17T00:54:18.871Z,28.10
2022-08-17T00:57:04.396Z,26.10
2022-08-17T00:59:41.705Z,26.13
2022-08-17T01:02:15.335Z,27.83
2022-08-17T01:04:49.352Z,30.97
2022-08-17T01:07:23.425Z,27.47
2022-08-17T01:09:55.488Z,31.67
2022-08-17T01:12:28.601Z,27.60
2022-08-17T01:15:00.567Z,28.40
2022-08-17T01:17:33.602Z,30.60
2022-08-17T01:20:05.867Z,30.03
2022-08-17T01:22:38.030Z,28.47
2022-08-17T01:25:11.576Z,29.70
2022-08-17T01:27:43.899Z,28.37
2022-08-17T01:30:57.829Z,30.47
2022-08-17T01:33:11.441Z,28.60
2022-08-17T01:35:43.459Z,31.10
2022-08-17T01:38:17.144Z,32.33
2022-08-17T01:41:07.018Z,31.93
2022-08-17T01:43:53.783Z,38.80
2022-08-17T01:46:31.045Z,33.70
2022-08-17T01:49:08.294Z,33.43
2022-08-17T01:51:41.463Z,28.80
2022-08-17T01:54:17.230Z,32.93
2022-08-17T01:56:51.335Z,32.97
2022-08-17T01:59:23.293Z,32.90
2022-08-17T02:01:55.291Z,32.50
2022-08-17T02:04:27.620Z,34.70
2022-08-17T02:06:59.754Z,31.43
2022-08-17T02:09:32.654Z,30.63
2022-08-17T02:12:39.249Z,31.93
2022-08-17T02:14:57.599Z,32.43
2022-08-17T02:17:29.495Z,32.50
2022-08-17T02:20:01.973Z,43.43
2022-08-17T02:22:36.230Z,32.57
2022-08-17T02:25:10.147Z,32.43
2022-08-17T02:27:42.509Z,32.37
2022-08-17T02:31:02.094Z,31.50
2022-08-17T02:33:11.553Z,34.50
2022-08-17T02:35:53.760Z,34.07
2022-08-17T02:38:25.977Z,33.00
2022-08-17T02:40:59.185Z,32.70
2022-08-17T02:43:31.678Z,31.57
2022-08-17T02:46:03.928Z,31.63
2022-08-17T02:48:35.960Z,31.70
2022-08-17T02:51:09.125Z,32.47
2022-08-17T02:53:41.253Z,31.73
2022-08-17T02:56:13.374Z,32.63
2022-08-17T02:58:46.373Z,32.47
2022-08-17T03:01:18.548Z,31.67
2022-08-17T03:03:50.550Z,31.63
2022-08-17T03:06:22.823Z,31.70
2022-08-17T03:08:54.767Z,35.30
2022-08-17T03:11:26.748Z,37.30
2022-08-17T03:13:59.175Z,32.80
2022-08-17T03:16:31.255Z,36.40
2022-08-17T03:19:03.781Z,33.47
2022-08-17T03:21:35.891Z,33.20
2022-08-17T03:24:09.206Z,31.57
2022-08-17T03:26:41.174Z,33.27
2022-08-17T03:29:18.865Z,31.60
2022-08-17T03:31:50.771Z,32.10
2022-08-17T03:34:22.769Z,35.40
2022-08-17T03:36:55.032Z,32.60
2022-08-17T03:39:27.066Z,32.50
2022-08-17T03:42:31.432Z,36.13
2022-08-17T03:45:03.267Z,38.47
2022-08-17T03:47:54.071Z,36.33
2022-08-17T03:50:55.490Z,37.10
2022-08-17T03:53:45.811Z,36.70
2022-08-17T03:56:36.591Z,35.63
2022-08-17T03:59:21.190Z,35.53
2022-08-17T04:01:56.010Z,35.80
2022-08-17T04:04:28.055Z,35.00
2022-08-17T04:07:00.094Z,36.27
2022-08-17T04:09:31.980Z,35.40
2022-08-17T04:12:05.141Z,35.33
2022-08-17T04:14:53.464Z,38.47
2022-08-17T04:17:28.305Z,37.13
2022-08-17T04:20:00.290Z,33.70
2022-08-17T04:22:34.386Z,36.73
2022-08-17T04:25:06.366Z,34.90
2022-08-17T04:27:38.354Z,37.60
2022-08-17T04:30:11.764Z,36.23
2022-08-17T04:33:04.698Z,34.43
2022-08-17T04:35:43.944Z,36.47
2022-08-17T04:38:25.911Z,37.57
2022-08-17T04:41:17.746Z,33.37
2022-08-17T04:43:54.912Z,31.47
2022-08-17T04:46:35.366Z,37.00
2022-08-17T04:49:10.518Z,44.97
2022-08-17T04:51:54.705Z,36.33
2022-08-17T04:54:28.987Z,35.83
2022-08-17T04:57:01.111Z,35.50
2022-08-17T04:59:33.064Z,37.30
2022-08-17T05:02:05.116Z,35.00
2022-08-17T05:04:37.141Z,36.57
2022-08-17T05:07:09.151Z,38.97
2022-08-17T05:09:41.103Z,33.77
2022-08-17T05:12:13.276Z,36.27
2022-08-17T05:14:45.386Z,35.90
2022-08-17T05:17:17.568Z,35.00
2022-08-17T05:19:51.941Z,38.30
2022-08-17T05:22:24.194Z,34.77
2022-08-17T05:24:56.403Z,37.37
2022-08-17T05:27:35.314Z,37.33
2022-08-17T05:30:08.496Z,36.40
2022-08-17T05:32:40.605Z,37.27
2022-08-17T05:35:12.654Z,36.40
2022-08-17T05:37:45.167Z,37.70
2022-08-17T05:40:17.791Z,34.97
2022-08-17T05:42:49.910Z,35.60
2022-08-17T05:45:39.988Z,34.77
2022-08-17T05:48:14.107Z,34.17
2022-08-17T05:51:06.942Z,37.50
2022-08-17T05:53:58.693Z,35.50
2022-08-17T05:56:50.912Z,36.30
2022-08-17T05:59:42.732Z,36.03
2022-08-17T06:02:29.578Z,35.37
2022-08-17T06:05:10.996Z,39.50
2022-08-17T06:08:00.856Z,34.03
2022-08-17T06:10:42.921Z,35.70
2022-08-17T06:13:32.787Z,34.10
2022-08-17T06:16:28.155Z,32.13
2022-08-17T06:19:12.297Z,35.90
2022-08-17T06:21:48.100Z,34.33
2022-08-17T06:24:43.104Z,33.30
2022-08-17T06:27:33.217Z,29.30
2022-08-17T06:30:13.163Z,30.33
2022-08-17T06:32:48.563Z,31.00
2022-08-17T06:35:34.145Z,33.70
2022-08-17T06:38:37.601Z,29.47
2022-08-17T06:41:11.173Z,29.33
2022-08-17T06:44:11.589Z,29.67
2022-08-17T06:47:09.065Z,29.13
2022-08-17T06:49:55.281Z,31.80
2022-08-17T06:52:45.763Z,27.30
2022-08-17T06:55:26.434Z,28.63
2022-08-17T06:58:02.123Z,28.80
2022-08-17T07:00:49.360Z,30.23
2022-08-17T07:03:27.325Z,34.87
2022-08-17T07:06:05.765Z,27.83
2022-08-17T07:09:04.510Z,26.70
2022-08-17T07:11:54.254Z,29.03
2022-08-17T07:14:48.438Z,26.07
2022-08-17T07:17:22.529Z,31.87
2022-08-17T07:20:23.161Z,27.23
2022-08-17T07:23:24.414Z,25.47
2022-08-17T07:26:08.038Z,28.17
2022-08-17T07:28:41.182Z,23.80
2022-08-17T07:31:17.117Z,24.70
2022-08-17T07:34:04.574Z,27.20
2022-08-17T07:36:36.690Z,27.77
2022-08-17T07:39:09.759Z,23.33
2022-08-17T07:41:57.430Z,20.43
2022-08-17T07:44:30.893Z,20.60
2022-08-17T07:47:21.730Z,21.93
2022-08-17T07:49:53.807Z,18.77
2022-08-17T07:52:50.966Z,18.93
2022-08-17T07:55:35.392Z,20.10
2022-08-17T07:58:07.753Z,21.17
2022-08-17T08:00:39.927Z,20.73
2022-08-17T08:03:23.707Z,17.40
2022-08-17T08:06:02.239Z,21.50
2022-08-17T08:08:42.429Z,16.73
2022-08-17T08:11:16.563Z,16.33
2022-08-17T08:13:52.745Z,17.13
2022-08-17T08:16:29.254Z,17.27
2022-08-17T08:19:02.075Z,17.63
2022-08-17T08:21:50.582Z,16.60
2022-08-17T08:24:48.062Z,16.30
2022-08-17T08:27:49.660Z,16.57
2022-08-17T08:30:22.512Z,18.90
2022-08-17T08:33:27.200Z,14.97
2022-08-17T08:36:10.146Z,12.73
2022-08-17T08:38:47.457Z,15.27
2022-08-17T08:41:44.908Z,14.70
2022-08-17T08:45:00.719Z,14.57
2022-08-17T08:47:55.297Z,13.03
2022-08-17T08:50:42.967Z,16.00
2022-08-17T08:53:43.767Z,12.73
2022-08-17T08:56:28.377Z,12.70
2022-08-17T08:59:04.355Z,12.47
2022-08-17T09:01:44.193Z,15.87
2022-08-17T09:04:44.965Z,13.07
2022-08-17T09:07:57.367Z,12.63
2022-08-17T09:10:35.317Z,16.47
2022-08-17T09:13:16.944Z,13.43
2022-08-17T09:15:57.316Z,13.33
2022-08-17T09:19:03.367Z,11.50
2022-08-17T09:21:48.493Z,11.83
2022-08-17T09:24:25.934Z,16.83
2022-08-17T09:27:03.153Z,14.50
2022-08-17T09:29:40.412Z,12.73
2022-08-17T09:32:21.460Z,12.60
2022-08-17T09:35:00.249Z,13.07
2022-08-17T09:37:41.889Z,15.47
2022-08-17T09:40:39.814Z,14.27
2022-08-17T09:43:35.856Z,13.23
2022-08-17T09:46:16.841Z,15.90
2022-08-17T09:48:55.428Z,14.43
2022-08-17T09:51:40.552Z,13.30
2022-08-17T09:54:44.667Z,14.43
2022-08-17T09:57:47.514Z,16.10
2022-08-17T10:00:27.909Z,13.93
2022-08-17T10:03:25.401Z,17.73
2022-08-17T10:06:14.459Z,24.83
2022-08-17T10:08:55.410Z,14.13
2022-08-17T10:12:01.281Z,13.37
2022-08-17T10:14:55.898Z,15.90
2022-08-17T10:17:53.417Z,15.93
2022-08-17T10:20:33.256Z,15.33
2022-08-17T10:23:35.140Z,12.93
2022-08-17T10:26:21.240Z,16.23
2022-08-17T10:29:03.912Z,15.20
2022-08-17T10:31:45.556Z,13.60
2022-08-17T10:34:45.721Z,12.83
2022-08-17T10:37:33.926Z,20.67
2022-08-17T10:40:47.144Z,15.50
2022-08-17T10:43:37.278Z,14.33
2022-08-17T10:46:30.831Z,15.47
2022-08-17T10:49:21.598Z,15.03
2022-08-17T10:51:58.803Z,13.30
2022-08-17T10:54:41.091Z,13.23
2022-08-17T10:57:46.774Z,14.83
2022-08-17T11:00:18.872Z,21.63
2022-08-17T11:02:53.314Z,13.50
2022-08-17T11:05:34.566Z,13.07
2022-08-17T11:08:40.749Z,13.20
2022-08-17T11:11:34.540Z,11.73
2022-08-17T11:14:11.142Z,14.20
2022-08-17T11:16:53.411Z,13.00
2022-08-17T11:20:06.908Z,12.63
2022-08-17T11:22:47.800Z,12.33
2022-08-17T11:25:22.662Z,15.87
2022-08-17T11:28:06.891Z,16.30
2022-08-17T11:30:41.759Z,14.53
2022-08-17T11:33:36.720Z,16.40
2022-08-17T11:36:18.345Z,12.07
2022-08-17T11:38:57.947Z,12.40
2022-08-17T11:41:48.910Z,11.60
2022-08-17T11:44:37.851Z,14.60
2022-08-17T11:48:23.852Z,12.70
2022-08-17T11:51:12.745Z,13.83
2022-08-17T11:53:45.807Z,17.03
2022-08-17T11:56:35.013Z,21.60
2022-08-17T11:59:36.470Z,14.27
2022-08-17T12:02:32.907Z,14.07
2022-08-17T12:05:26.094Z,13.43
2022-08-17T12:08:12.439Z,13.87
2022-08-17T12:11:01.077Z,12.23
2022-08-17T12:13:43.956Z,14.70
2022-08-17T12:16:17.562Z,12.63
2022-08-17T12:19:02.503Z,13.40
2022-08-17T12:21:48.881Z,13.93
2022-08-17T12:24:39.481Z,12.53
2022-08-17T12:27:13.254Z,16.50
2022-08-17T12:29:45.702Z,14.23
2022-08-17T12:32:20.245Z,12.87
2022-08-17T12:34:52.529Z,12.17
2022-08-17T12:37:32.293Z,15.70
2022-08-17T12:40:17.987Z,12.53
2022-08-17T12:43:05.329Z,12.80
2022-08-17T12:45:42.101Z,12.87
2022-08-17T12:48:23.003Z,12.53
2022-08-17T12:51:02.904Z,11.63
2022-08-17T12:53:38.456Z,12.30
2022-08-17T12:56:12.164Z,13.93
2022-08-17T12:58:54.150Z,11.00
2022-08-17T13:01:26.264Z,12.33
2022-08-17T13:04:00.201Z,11.83
2022-08-17T13:06:34.781Z,12.73
2022-08-17T13:09:21.390Z,12.10
2022-08-17T13:11:59.562Z,17.17
2022-08-17T13:14:31.641Z,11.73
2022-08-17T13:17:09.886Z,11.63
2022-08-17T13:19:49.880Z,11.70
2022-08-17T13:22:25.979Z,14.13
2022-08-17T13:25:08.457Z,12.83
2022-08-17T13:27:42.281Z,12.47
2022-08-17T13:30:23.417Z,13.20
2022-08-17T13:32:57.258Z,11.80
2022-08-17T13:35:44.160Z,12.17
2022-08-17T13:38:47.074Z,12.27
2022-08-17T13:41:34.987Z,12.97
2022-08-17T13:44:37.173Z,11.87
2022-08-17T13:47:18.647Z,12.67
2022-08-17T13:49:51.224Z,12.27
2022-08-17T13:52:45.146Z,12.93
2022-08-17T13:55:22.092Z,10.77
2022-08-17T13:58:00.925Z,12.33
2022-08-17T14:00:39.567Z,14.37
2022-08-17T14:03:12.175Z,11.60
2022-08-17T14:05:46.070Z,18.00
2022-08-17T14:08:20.173Z,12.20
2022-08-17T14:10:58.183Z,11.00
2022-08-17T14:13:30.227Z,11.13
2022-08-17T14:16:02.308Z,10.20
2022-08-17T14:18:55.644Z,12.00
2022-08-17T14:21:26.439Z,11.27
2022-08-17T14:23:58.529Z,12.13
2022-08-17T14:26:30.852Z,12.97
2022-08-17T14:29:02.946Z,13.83
2022-08-17T14:31:37.543Z,11.73
2022-08-17T14:34:10.746Z,11.83
2022-08-17T14:36:45.514Z,10.80
2022-08-17T14:39:20.936Z,12.63
2022-08-17T14:41:53.244Z,10.93
2022-08-17T14:44:25.233Z,12.80
2022-08-17T14:46:57.300Z,11.67
2022-08-17T14:49:30.206Z,11.10
2022-08-17T14:52:02.293Z,11.80
2022-08-17T14:54:34.736Z,23.23
2022-08-17T14:57:33.223Z,16.00
2022-08-17T15:00:00.210Z,12.80
2022-08-17T15:02:44.377Z,11.90
2022-08-17T15:05:17.425Z,11.10
2022-08-17T15:07:49.803Z,11.80
2022-08-17T15:10:22.198Z,12.37
2022-08-17T15:12:54.493Z,15.17
2022-08-17T15:15:27.210Z,14.57
2022-08-17T15:18:00.065Z,15.80
2022-08-17T15:20:33.224Z,12.60
2022-08-17T15:23:06.972Z,12.50
2022-08-17T15:25:39.001Z,18.53
2022-08-17T15:28:12.149Z,12.17
2022-08-17T15:30:45.131Z,15.33
2022-08-17T15:33:23.979Z,16.20
2022-08-17T15:36:01.654Z,14.27
2022-08-17T15:38:36.750Z,15.73
2022-08-17T15:41:13.667Z,14.47
2022-08-17T15:43:47.565Z,14.30
2022-08-17T15:46:22.093Z,14.30
2022-08-17T15:48:58.876Z,25.73
2022-08-17T15:51:32.871Z,15.73
2022-08-17T15:54:19.046Z,19.50
2022-08-17T15:56:54.207Z,17.60
2022-08-17T15:59:27.104Z,15.37
2022-08-17T16:03:15.300Z,17.83
2022-08-17T16:04:53.318Z,16.80
2022-08-17T16:07:26.959Z,16.83
2022-08-17T16:09:59.086Z,18.33
2022-08-17T16:12:31.289Z,16.90
2022-08-17T16:15:05.334Z,17.70
2022-08-17T16:17:39.802Z,16.30
2022-08-17T16:20:20.223Z,16.93
2022-08-17T16:22:54.523Z,16.27
2022-08-17T16:25:50.328Z,15.50
2022-08-17T16:28:29.877Z,15.37
2022-08-17T16:31:09.365Z,15.43
2022-08-17T16:33:41.769Z,17.93
2022-08-17T16:36:13.703Z,19.80
2022-08-17T16:38:46.721Z,16.07
2022-08-17T16:41:38.801Z,14.97
2022-08-17T16:44:21.437Z,16.80
2022-08-17T16:46:53.700Z,15.60
2022-08-17T16:49:36.929Z,15.17
2022-08-17T16:52:10.712Z,13.63
2022-08-17T16:54:44.506Z,18.00
2022-08-17T16:57:17.574Z,15.13
2022-08-17T16:59:51.498Z,15.53
2022-08-17T17:02:32.092Z,15.23
2022-08-17T17:05:13.090Z,14.00
2022-08-17T17:07:55.665Z,13.40
2022-08-17T17:10:40.715Z,17.97
2022-08-17T17:13:21.560Z,15.60
2022-08-17T17:16:12.404Z,16.70
2022-08-17T17:19:07.968Z,14.10
2022-08-17T17:22:12.219Z,14.43
2022-08-17T17:25:10.922Z,15.27
2022-08-17T17:27:43.245Z,16.03
2022-08-17T17:30:27.718Z,13.97
2022-08-17T17:33:06.895Z,13.70
2022-08-17T17:35:57.571Z,16.00
2022-08-17T17:38:34.291Z,15.47
2022-08-17T17:41:13.565Z,13.40
2022-08-17T17:43:49.421Z,12.90
2022-08-17T17:46:29.092Z,13.40
2022-08-17T17:49:01.442Z,13.40
2022-08-17T17:52:06.745Z,14.00
2022-08-17T17:54:56.539Z,14.43
2022-08-17T17:57:54.533Z,15.03
2022-08-17T18:00:35.499Z,16.93
2022-08-17T18:03:34.724Z,13.30
2022-08-17T18:06:08.108Z,13.47
2022-08-17T18:08:52.805Z,12.20
2022-08-17T18:11:44.202Z,13.03
2022-08-17T18:14:40.135Z,15.43
2022-08-17T18:17:12.623Z,13.83
2022-08-17T18:19:47.054Z,15.03
2022-08-17T18:22:21.825Z,14.73
2022-08-17T18:24:58.766Z,10.90
2022-08-17T18:27:37.521Z,19.23
2022-08-17T18:30:12.270Z,13.93
2022-08-17T18:32:46.544Z,14.10
2022-08-17T18:35:18.534Z,6.20
2022-08-17T18:37:53.860Z,6.47
2022-08-17T18:40:35.745Z,7.17
2022-08-17T18:43:14.225Z,9.27
2022-08-17T18:45:48.902Z,18.27
2022-08-17T18:48:20.892Z,14.50
2022-08-17T18:50:58.351Z,17.07
2022-08-17T18:53:41.133Z,14.20
2022-08-17T18:56:16.061Z,14.00
2022-08-17T18:59:12.540Z,14.07
2022-08-17T19:02:21.627Z,13.70
2022-08-17T19:05:10.035Z,12.57
2022-08-17T19:07:46.940Z,12.90
2022-08-17T19:10:26.023Z,11.97
2022-08-17T19:13:12.621Z,13.67
2022-08-17T19:16:14.001Z,12.97
2022-08-17T19:18:58.650Z,12.87
2022-08-17T19:21:36.317Z,10.43
2022-08-17T19:24:13.072Z,11.17
2022-08-17T19:26:57.656Z,12.43
2022-08-17T19:29:54.394Z,11.30
2022-08-17T19:32:29.916Z,20.90
2022-08-17T19:35:03.231Z,10.20
2022-08-17T19:37:54.752Z,11.73
2022-08-17T19:40:58.812Z,11.80
2022-08-17T19:44:13.771Z,10.50
2022-08-17T19:47:17.227Z,14.93
2022-08-17T19:50:41.690Z,10.80
2022-08-17T19:54:03.744Z,10.93
2022-08-17T19:56:49.129Z,10.53
2022-08-17T19:59:48.983Z,11.57
2022-08-17T20:02:29.037Z,13.10
2022-08-17T20:05:25.648Z,10.77
2022-08-17T20:08:14.757Z,10.70
2022-08-17T20:10:54.838Z,12.70
2022-08-17T20:13:33.975Z,12.10
2022-08-17T20:16:07.073Z,13.47
2022-08-17T20:18:52.466Z,12.27
2022-08-17T20:21:46.422Z,14.40
2022-08-17T20:24:28.578Z,12.70
2022-08-17T20:27:16.621Z,12.37
2022-08-17T20:30:13.049Z,12.63
2022-08-17T20:32:56.675Z,12.03
2022-08-17T20:35:39.110Z,10.83
2022-08-17T20:38:33.336Z,14.03
2022-08-17T20:41:11.821Z,10.33
2022-08-17T20:44:05.277Z,10.37
2022-08-17T20:46:37.920Z,14.03
2022-08-17T20:49:41.364Z,11.20
2022-08-17T20:52:17.725Z,10.83
2022-08-17T20:54:55.884Z,16.33
2022-08-17T20:57:33.459Z,9.70
2022-08-17T21:00:25.253Z,10.00
2022-08-17T21:03:21.982Z,12.93
2022-08-17T21:05:59.895Z,10.50
2022-08-17T21:08:41.329Z,15.93
2022-08-17T21:11:58.247Z,11.60
2022-08-17T21:14:59.725Z,8.33
2022-08-17T21:17:50.334Z,15.47
2022-08-17T21:21:03.734Z,8.77
2022-08-17T21:23:49.593Z,8.80
2022-08-17T21:26:38.924Z,12.87
2022-08-17T21:29:31.256Z,9.70
2022-08-17T21:32:05.250Z,9.50
2022-08-17T21:34:43.693Z,8.93
2022-08-17T21:37:38.140Z,8.40
2022-08-17T21:40:10.739Z,8.60
2022-08-17T21:42:50.578Z,8.13
2022-08-17T21:45:29.697Z,11.90
2022-08-17T21:48:15.005Z,8.00
2022-08-17T21:50:57.516Z,8.70
2022-08-17T21:53:44.686Z,8.17
2022-08-17T21:56:28.322Z,7.53
2022-08-17T21:59:06.572Z,8.33
2022-08-17T22:01:41.398Z,8.63
2022-08-17T22:04:33.627Z,8.03
2022-08-17T22:07:11.399Z,8.87
2022-08-17T22:09:48.115Z,8.33
2022-08-17T22:12:22.166Z,8.50
2022-08-17T22:15:04.111Z,9.30
2022-08-17T22:17:46.297Z,8.77
2022-08-17T22:20:20.010Z,7.63
2022-08-17T22:23:13.270Z,8.03
2022-08-17T22:26:03.981Z,8.50
2022-08-17T22:28:49.453Z,8.47
2022-08-17T22:31:24.630Z,8.60
2022-08-17T22:34:02.215Z,9.23
2022-08-17T22:36:35.120Z,13.60
2022-08-17T22:39:08.298Z,8.40
2022-08-17T22:42:00.181Z,8.00
2022-08-17T22:44:38.449Z,8.07
2022-08-17T22:47:19.062Z,9.37
2022-08-17T22:49:54.698Z,7.47
2022-08-17T22:52:58.683Z,7.23
2022-08-17T22:55:50.437Z,6.57
2022-08-17T22:58:42.689Z,7.10
2022-08-17T23:01:27.775Z,6.30
2022-08-17T23:04:05.935Z,7.90
2022-08-17T23:06:40.206Z,6.53
2022-08-17T23:09:12.188Z,6.10
2022-08-17T23:11:50.025Z,9.13
2022-08-17T23:14:22.581Z,6.00
2022-08-17T23:16:54.619Z,6.07
2022-08-17T23:19:28.356Z,8.70
2022-08-17T23:22:04.150Z,6.30
2022-08-17T23:24:42.364Z,7.20
2022-08-17T23:27:14.479Z,7.57
2022-08-17T23:29:47.146Z,5.73
2022-08-17T23:32:19.247Z,5.50
2022-08-17T23:34:51.243Z,6.00
2022-08-17T23:37:23.199Z,5.50
2022-08-17T23:39:55.383Z,6.10
2022-08-17T23:42:28.614Z,6.00
2022-08-17T23:45:01.225Z,5.00
2022-08-17T23:47:33.149Z,6.10
2022-08-17T23:50:05.737Z,5.90
2022-08-17T23:52:37.870Z,5.93
2022-08-17T23:55:10.433Z,6.47
2022-08-17T23:57:42.816Z,6.17
